Time;durP1;ratioP1;P1;durP2;ratioP2;P2;SDS_P1;SDS_P2;PMS_P1;PMS_P2;Temp;Humidity;BMP_temperature;BMP_pressure;BME280_temperature;BME280_humidity;BME280_pressure;Samples;Min_cycle;Max_cycle;Signal;HPM_P1;HPM_P2
2022/01/09 00:00:27;;;;;;;;;;;;;;;19.55;48.39;99402.88;2082993;28;19938;-64
2022/01/09 00:01:27;;;;;;;;;;;;;;;19.55;48.36;99407.47;2082453;28;19917;-64
2022/01/09 00:02:27;;;;;;;;;;;;;;;19.54;48.36;99406.63;2078517;28;19948;-64
2022/01/09 00:03:28;;;;;;;;;;;;;;;19.53;48.46;99404.94;2081830;28;19970;-64
2022/01/09 00:04:28;;;;;;;;;;;;;;;19.52;48.56;99403.19;2081930;28;19923;-64
2022/01/09 00:05:29;;;;;;;;;;;;;;;19.53;48.40;99404.09;2082870;28;19916;-64
2022/01/09 00:06:29;;;;;;;;;;;;;;;19.51;48.51;99401.50;2082337;28;20488;-64
2022/01/09 00:07:29;;;;;;;;;;;;;;;19.52;48.52;99403.19;2077623;28;20212;-64
2022/01/09 00:08:29;;;;;;;;;;;;;;;19.52;48.45;99397.72;2076284;28;20247;-64
2022/01/09 00:09:31;;;;;;;;;;;;;;;19.51;48.50;99396.03;2082451;28;20397;-64
2022/01/09 00:10:33;;;;;;;;;;;;;;;19.51;48.60;99390.56;2082659;28;19998;-64
2022/01/09 00:11:33;;;;;;;;;;;;;;;19.51;48.45;99396.03;2079823;28;19917;-64
2022/01/09 00:12:34;;;;;;;;;;;;;;;19.51;48.51;99395.19;2081813;28;19921;-64
2022/01/09 00:13:34;;;;;;;;;;;;;;;19.50;48.52;99388.88;2077924;28;20348;-63
2022/01/09 00:14:35;;;;;;;;;;;;;;;19.48;48.52;99386.31;2081690;28;20334;-64
2022/01/09 00:15:35;;;;;;;;;;;;;;;19.50;48.58;99391.59;2080760;28;20623;-64
2022/01/09 00:16:35;;;;;;;;;;;;;;;19.48;48.54;99391.75;2083515;28;20015;-64
2022/01/09 00:17:36;;;;;;;;;;;;;;;19.49;48.53;99392.63;2082397;28;19923;-64
2022/01/09 00:18:36;;;;;;;;;;;;;;;19.48;48.57;99386.31;2077833;28;20288;-64
2022/01/09 00:19:36;;;;;;;;;;;;;;;19.47;48.62;99390.03;2081843;28;20400;-64
2022/01/09 00:20:37;;;;;;;;;;;;;;;19.47;48.63;99391.91;2083643;28;19917;-63
2022/01/09 00:21:37;;;;;;;;;;;;;;;19.46;48.60;99387.50;2082816;28;19917;-63
2022/01/09 00:22:45;;;;;;;;;;;;;;;19.46;48.66;99390.22;2082544;28;19905;-64
2022/01/09 00:23:46;;;;;;;;;;;;;;;19.46;48.63;99382.88;2083442;28;20019;-63
2022/01/09 00:24:46;;;;;;;;;;;;;;;19.46;48.69;99393.81;2083103;28;20434;-64
2022/01/09 00:25:46;;;;;;;;;;;;;;;19.46;48.67;99385.59;2082579;28;19956;-64
2022/01/09 00:26:47;;;;;;;;;;;;;;;19.46;48.66;99390.22;2082698;28;19974;-64
2022/01/09 00:27:48;;;;;;;;;;;;;;;19.47;48.64;99383.72;2082310;28;19919;-64
2022/01/09 00:28:48;;;;;;;;;;;;;;;19.47;48.78;99400.13;2082078;28;19944;-64
2022/01/09 00:29:49;;;;;;;;;;;;;;;19.47;48.63;99394.66;2082563;28;20176;-64
2022/01/09 00:30:49;;;;;;;;;;;;;;;19.46;48.76;99395.69;2082564;28;20344;-64
2022/01/09 00:31:49;;;;;;;;;;;;;;;19.45;48.78;99386.66;2081630;28;19913;-64
2022/01/09 00:32:50;;;;;;;;;;;;;;;19.44;48.89;99390.38;2083762;28;19919;-64
2022/01/09 00:33:51;;;;;;;;;;;;;;;19.45;48.79;99383.03;2082203;28;20080;-64
2022/01/09 00:34:51;;;;;;;;;;;;;;;19.44;48.87;99379.44;2080889;28;20576;-63
2022/01/09 00:35:52;;;;;;;;;;;;;;;19.44;48.79;99386.81;2081421;28;20790;-64
2022/01/09 00:36:52;;;;;;;;;;;;;;;19.45;48.89;99388.50;2078948;28;19993;-64
2022/01/09 00:37:52;;;;;;;;;;;;;;;19.45;48.83;99402.16;2082706;28;19912;-64
2022/01/09 00:38:53;;;;;;;;;;;;;;;19.43;48.82;99387.84;2078614;28;19956;-63
2022/01/09 00:39:53;;;;;;;;;;;;;;;19.44;48.87;99384.06;2083556;28;19917;-64
2022/01/09 00:40:53;;;;;;;;;;;;;;;19.42;48.93;99389.69;2083229;28;19911;-64
2022/01/09 00:41:53;;;;;;;;;;;;;;;19.42;48.91;99386.13;2081306;28;19912;-64
2022/01/09 00:42:54;;;;;;;;;;;;;;;19.43;48.94;99393.31;2081840;28;19956;-64
2022/01/09 00:43:54;;;;;;;;;;;;;;;19.43;48.98;99387.84;2083246;28;19917;-64
2022/01/09 00:44:54;;;;;;;;;;;;;;;19.41;48.96;99388.00;2082963;28;20299;-64
2022/01/09 00:45:55;;;;;;;;;;;;;;;19.43;48.85;99393.31;2081950;28;20417;-64
2022/01/09 00:46:56;;;;;;;;;;;;;;;19.41;48.92;99395.34;2081407;28;19966;-64
2022/01/09 00:47:57;;;;;;;;;;;;;;;19.41;49.03;99400.81;2081576;28;20383;-64
2022/01/09 00:48:57;;;;;;;;;;;;;;;19.40;48.77;99399.09;2083827;28;20386;-64
2022/01/09 00:49:58;;;;;;;;;;;;;;;19.40;49.00;99401.81;2082531;28;19928;-64
2022/01/09 00:50:59;;;;;;;;;;;;;;;19.38;48.96;99396.53;2084371;28;19916;-63
2022/01/09 00:51:59;;;;;;;;;;;;;;;19.39;49.03;99408.31;2080639;28;19913;-64
2022/01/09 00:52:59;;;;;;;;;;;;;;;19.37;48.96;99394.81;2083109;28;19919;-64
2022/01/09 00:53:59;;;;;;;;;;;;;;;19.38;49.06;99406.63;2084263;28;19927;-64
2022/01/09 00:55:00;;;;;;;;;;;;;;;19.38;49.02;99407.47;2077148;28;19917;-64
2022/01/09 00:56:00;;;;;;;;;;;;;;;19.38;48.97;99414.81;2075738;28;19924;-64
2022/01/09 00:57:00;;;;;;;;;;;;;;;19.38;49.07;99409.34;2083458;28;20355;-64
2022/01/09 00:58:01;;;;;;;;;;;;;;;19.37;49.09;99410.38;2083235;28;21084;-64
2022/01/09 00:59:01;;;;;;;;;;;;;;;19.37;49.02;99405.75;2085421;28;19978;-64
2022/01/09 01:00:03;;;;;;;;;;;;;;;19.36;49.04;99405.94;2084381;28;20156;-64
2022/01/09 01:01:04;;;;;;;;;;;;;;;19.36;49.02;99419.59;2084659;28;20117;-63
2022/01/09 01:02:04;;;;;;;;;;;;;;;19.35;49.09;99417.88;2085838;28;19951;-64
2022/01/09 01:03:04;;;;;;;;;;;;;;;19.36;49.13;99416.88;2084708;28;20230;-64
2022/01/09 01:04:05;;;;;;;;;;;;;;;19.36;49.13;99419.59;2083698;28;19917;-64
2022/01/09 01:05:05;;;;;;;;;;;;;;;19.35;49.25;99410.53;2085619;28;20013;-64
2022/01/09 01:06:06;;;;;;;;;;;;;;;19.34;49.11;99411.56;2083984;28;19917;-63
2022/01/09 01:07:06;;;;;;;;;;;;;;;19.35;49.12;99423.34;2084457;28;19917;-64
2022/01/09 01:08:07;;;;;;;;;;;;;;;19.34;49.16;99427.09;2085667;28;19932;-64
2022/01/09 01:09:07;;;;;;;;;;;;;;;19.34;49.17;99417.03;2084687;28;19931;-63
2022/01/09 01:10:08;;;;;;;;;;;;;;;19.34;49.28;99427.09;2085483;28;20442;-64
2022/01/09 01:11:09;;;;;;;;;;;;;;;19.34;49.14;99429.84;2084712;28;19971;-63
2022/01/09 01:12:10;;;;;;;;;;;;;;;19.32;49.14;99430.00;2085572;28;20547;-64
2022/01/09 01:13:10;;;;;;;;;;;;;;;19.32;49.14;99440.91;2078380;28;19964;-63
2022/01/09 01:14:10;;;;;;;;;;;;;;;19.32;49.16;99443.66;2082767;28;19912;-64
2022/01/09 01:15:11;;;;;;;;;;;;;;;19.32;49.22;99440.06;2079422;28;19988;-64
2022/01/09 01:16:12;;;;;;;;;;;;;;;19.33;49.25;99452.69;2080299;28;19959;-64
2022/01/09 01:17:13;;;;;;;;;;;;;;;19.32;49.16;99451.00;2080694;28;19917;-65
2022/01/09 01:18:14;;;;;;;;;;;;;;;19.33;49.21;99452.69;2069550;28;19968;-64
2022/01/09 01:19:14;;;;;;;;;;;;;;;19.32;49.16;99453.75;2067583;28;19921;-64
2022/01/09 01:20:20;;;;;;;;;;;;;;;19.32;49.33;99461.94;2075352;28;19964;-64
2022/01/09 01:21:22;;;;;;;;;;;;;;;19.30;49.16;99469.44;2083594;28;19923;-64
2022/01/09 01:22:23;;;;;;;;;;;;;;;19.30;49.18;99470.28;2077142;28;19962;-64
2022/01/09 01:23:23;;;;;;;;;;;;;;;19.30;49.21;99469.44;2075452;28;20034;-64
2022/01/09 01:24:24;;;;;;;;;;;;;;;19.30;49.21;99470.28;2086141;28;19905;-64
2022/01/09 01:25:24;;;;;;;;;;;;;;;19.28;49.20;99454.09;2086230;28;19916;-64
2022/01/09 01:26:25;;;;;;;;;;;;;;;19.28;49.26;99467.75;2085149;28;20000;-64
2022/01/09 01:27:26;;;;;;;;;;;;;;;19.28;49.20;99464.16;2086326;28;19923;-64
2022/01/09 01:28:26;;;;;;;;;;;;;;;19.27;49.26;99460.53;2082073;28;19917;-64
2022/01/09 01:29:26;;;;;;;;;;;;;;;19.27;49.21;99463.28;2080889;28;19927;-64
2022/01/09 01:30:27;;;;;;;;;;;;;;;19.27;49.31;99465.16;2077690;28;19917;-64
2022/01/09 01:31:27;;;;;;;;;;;;;;;19.26;49.32;99474.41;2075948;28;19916;-64
2022/01/09 01:32:27;;;;;;;;;;;;;;;19.25;49.39;99462.59;2084960;28;19917;-64
2022/01/09 01:33:27;;;;;;;;;;;;;;;19.26;49.22;99467.06;2082117;28;20183;-64
2022/01/09 01:34:28;;;;;;;;;;;;;;;19.25;49.27;99465.31;2085384;28;20374;-64
2022/01/09 01:35:28;;;;;;;;;;;;;;;19.25;49.32;99468.06;2084255;28;20367;-64
2022/01/09 01:36:28;;;;;;;;;;;;;;;19.26;49.30;99467.06;2085834;28;19958;-64
2022/01/09 01:37:29;;;;;;;;;;;;;;;19.26;49.38;99466.19;2083947;28;19913;-64
2022/01/09 01:38:29;;;;;;;;;;;;;;;19.25;49.29;99465.31;2083813;28;20026;-64
2022/01/09 01:39:30;;;;;;;;;;;;;;;19.24;49.27;99460.88;2084137;28;19925;-64
2022/01/09 01:40:31;;;;;;;;;;;;;;;19.25;49.22;99468.06;2085172;28;19913;-64
2022/01/09 01:41:31;;;;;;;;;;;;;;;19.25;49.33;99461.75;2084722;28;19916;-64
2022/01/09 01:42:32;;;;;;;;;;;;;;;19.24;49.33;99460.88;2079708;28;20011;-63
2022/01/09 01:43:32;;;;;;;;;;;;;;;19.24;49.25;99460.88;2084754;28;19966;-63
2022/01/09 01:44:43;;;;;;;;;;;;;;;19.23;49.29;99470.13;2083846;28;19952;-63
2022/01/09 01:45:43;;;;;;;;;;;;;;;19.23;49.31;99464.66;2084954;28;20023;-64
2022/01/09 01:46:43;;;;;;;;;;;;;;;19.23;49.34;99464.66;2085640;28;19913;-64
2022/01/09 01:47:44;;;;;;;;;;;;;;;19.22;49.37;99471.13;2083008;28;19945;-64
2022/01/09 01:48:44;;;;;;;;;;;;;;;19.23;49.33;99474.72;2085561;28;19913;-64
2022/01/09 01:49:45;;;;;;;;;;;;;;;19.22;49.38;99479.31;2082798;28;19905;-64
2022/01/09 01:50:46;;;;;;;;;;;;;;;19.22;49.41;99486.66;2085786;28;19913;-64
2022/01/09 01:51:47;;;;;;;;;;;;;;;19.22;49.40;99494.88;2083451;28;19909;-63
2022/01/09 01:52:50;;;;;;;;;;;;;;;19.22;49.40;99492.97;2082487;28;19966;-64
2022/01/09 01:53:54;;;;;;;;;;;;;;;19.22;49.37;99501.19;2084777;28;20398;-64
2022/01/09 01:54:54;;;;;;;;;;;;;;;19.21;49.33;99493.16;2083316;28;20280;-64
2022/01/09 01:55:56;;;;;;;;;;;;;;;19.19;49.42;99490.59;2084392;28;20247;-64
2022/01/09 01:56:56;;;;;;;;;;;;;;;19.19;49.50;99496.06;2084559;28;20146;-64
2022/01/09 01:57:56;;;;;;;;;;;;;;;19.20;49.42;99507.84;2083795;28;19917;-64
2022/01/09 01:58:57;;;;;;;;;;;;;;;19.19;49.48;99509.72;2085293;28;19917;-64
2022/01/09 01:59:57;;;;;;;;;;;;;;;19.18;49.40;99510.75;2085128;28;19994;-64
2022/01/09 02:00:57;;;;;;;;;;;;;;;19.18;49.42;99505.28;2082741;28;20024;-64
2022/01/09 02:01:58;;;;;;;;;;;;;;;19.17;49.47;99509.03;2083292;28;19932;-64
2022/01/09 02:02:59;;;;;;;;;;;;;;;19.17;49.49;99511.75;2083511;28;19921;-64
2022/01/09 02:03:59;;;;;;;;;;;;;;;19.16;49.43;99515.50;2083471;28;20007;-64
2022/01/09 02:04:59;;;;;;;;;;;;;;;19.16;49.44;99512.78;2081431;28;20368;-64
2022/01/09 02:06:00;;;;;;;;;;;;;;;19.16;49.51;99512.78;2084683;28;20619;-64
2022/01/09 02:07:02;;;;;;;;;;;;;;;19.16;49.53;99512.78;2086146;28;19943;-64
2022/01/09 02:08:03;;;;;;;;;;;;;;;19.15;49.43;99519.25;2084686;28;20315;-64
2022/01/09 02:09:03;;;;;;;;;;;;;;;19.15;49.56;99519.25;2084551;28;19925;-64
2022/01/09 02:10:07;;;;;;;;;;;;;;;19.15;49.56;99521.13;2086101;28;20693;-64
2022/01/09 02:11:08;;;;;;;;;;;;;;;19.14;49.68;99517.56;2086697;28;19909;-64
2022/01/09 02:12:08;;;;;;;;;;;;;;;19.14;49.58;99519.44;2080821;28;19921;-64
2022/01/09 02:13:09;;;;;;;;;;;;;;;19.12;49.74;99516.84;2083329;28;20220;-64
2022/01/09 02:14:09;;;;;;;;;;;;;;;19.13;49.63;99521.28;2084938;28;19924;-64
2022/01/09 02:15:30;;;;;;;;;;;;;;;19.13;49.73;99524.00;2085100;28;20049;-64
2022/01/09 02:16:30;;;;;;;;;;;;;;;19.11;49.69;99520.63;2084116;28;19923;-65
2022/01/09 02:17:31;;;;;;;;;;;;;;;19.10;49.64;99524.34;2079846;28;20470;-63
2022/01/09 02:18:31;;;;;;;;;;;;;;;19.11;49.72;99526.09;2082949;28;20543;-64
2022/01/09 02:19:31;;;;;;;;;;;;;;;19.10;49.72;99527.09;2082891;28;20067;-64
2022/01/09 02:20:32;;;;;;;;;;;;;;;19.09;49.79;99514.47;2084628;28;20367;-64
2022/01/09 02:21:32;;;;;;;;;;;;;;;19.10;49.76;99523.50;2082131;28;19920;-64
2022/01/09 02:22:34;;;;;;;;;;;;;;;19.09;49.74;99528.13;2077138;28;19917;-64
2022/01/09 02:23:37;;;;;;;;;;;;;;;19.09;49.69;99522.66;2084081;28;19917;-64
2022/01/09 02:24:37;;;;;;;;;;;;;;;19.09;49.67;99521.81;2084978;28;19940;-63
2022/01/09 02:25:38;;;;;;;;;;;;;;;19.08;49.86;99518.19;2086018;28;19916;-63
2022/01/09 02:26:39;;;;;;;;;;;;;;;19.08;49.78;99517.34;2084035;28;19917;-64
2022/01/09 02:27:39;;;;;;;;;;;;;;;19.06;49.81;99512.06;2085058;28;19916;-63
2022/01/09 02:28:40;;;;;;;;;;;;;;;19.06;49.78;99521.09;2085943;28;19909;-64
2022/01/09 02:29:40;;;;;;;;;;;;;;;19.05;49.84;99510.34;2082013;28;19917;-64
2022/01/09 02:30:41;;;;;;;;;;;;;;;19.06;49.85;99512.06;2086028;28;20396;-64
2022/01/09 02:31:42;;;;;;;;;;;;;;;19.05;49.87;99515.78;2080419;28;20591;-64
2022/01/09 02:32:43;;;;;;;;;;;;;;;19.05;49.85;99515.78;2085384;28;20497;-64
2022/01/09 02:33:43;;;;;;;;;;;;;;;19.05;49.88;99515.78;2085407;28;19943;-64
2022/01/09 02:34:47;;;;;;;;;;;;;;;19.03;49.85;99502.31;2085241;28;19970;-64
2022/01/09 02:37:25;;;;;;;;;;;;;;;19.02;49.96;99513.41;2088894;22;20842;-64
2022/01/09 02:38:26;;;;;;;;;;;;;;;19.03;49.92;99517.81;2096320;28;19924;-64
2022/01/09 02:39:26;;;;;;;;;;;;;;;19.03;49.95;99509.63;2100262;28;19916;-64
2022/01/09 02:40:26;;;;;;;;;;;;;;;19.02;50.00;99516.13;2092475;28;20108;-63
2022/01/09 02:41:27;;;;;;;;;;;;;;;19.01;49.97;99509.81;2092934;28;20003;-64
2022/01/09 02:42:29;;;;;;;;;;;;;;;19.02;49.84;99514.25;2097752;28;20650;-64
2022/01/09 02:43:29;;;;;;;;;;;;;;;19.01;49.89;99508.94;2101523;28;19919;-64
2022/01/09 02:44:30;;;;;;;;;;;;;;;19.01;49.97;99508.94;2101186;28;20007;-63
2022/01/09 02:45:30;;;;;;;;;;;;;;;19.00;50.00;99518.16;2102093;28;19916;-64
2022/01/09 02:47:13;;;;;;;;;;;;;;;19.00;50.04;99512.69;2101787;28;19916;-64
2022/01/09 02:47:55;;;;;;;;;;;;;;;18.99;49.95;99522.78;2094115;28;19916;-64
2022/01/09 02:48:57;;;;;;;;;;;;;;;19.00;50.07;99529.94;2101082;28;20116;-64
2022/01/09 02:50:06;;;;;;;;;;;;;;;18.99;50.08;99527.38;2092181;28;19912;-64
2022/01/09 02:51:15;;;;;;;;;;;;;;;18.98;50.16;99525.66;2094489;28;19916;-64
2022/01/09 02:53:33;;;;;;;;;;;;;;;18.98;50.04;99526.50;2087596;28;19916;-64
2022/01/09 02:55:52;;;;;;;;;;;;;;;18.97;50.10;99523.97;2102077;28;19923;-63
2022/01/09 02:56:52;;;;;;;;;;;;;;;18.98;50.11;99520.19;2101701;28;20030;-64
2022/01/09 02:57:54;;;;;;;;;;;;;;;18.96;50.11;99531.31;2101081;28;19990;-64
2022/01/09 02:58:54;;;;;;;;;;;;;;;18.96;50.13;99527.69;2102596;28;19919;-64
2022/01/09 02:59:54;;;;;;;;;;;;;;;18.95;50.10;99528.72;2102512;28;19912;-64
2022/01/09 03:00:55;;;;;;;;;;;;;;;18.95;50.12;99531.47;2102925;28;20747;-64
2022/01/09 03:01:55;;;;;;;;;;;;;;;18.95;50.10;99531.47;2102191;28;19920;-64
2022/01/09 03:02:56;;;;;;;;;;;;;;;18.95;50.16;99536.91;2094406;28;19916;-64
2022/01/09 03:03:56;;;;;;;;;;;;;;;18.95;50.16;99539.66;2097146;28;20018;-64
2022/01/09 03:04:57;;;;;;;;;;;;;;;18.94;50.23;99540.69;2101751;28;19919;-64
2022/01/09 03:05:57;;;;;;;;;;;;;;;18.93;50.14;99544.41;2095227;28;20283;-63
2022/01/09 03:06:57;;;;;;;;;;;;;;;18.93;50.21;99555.34;2097908;28;20313;-64
2022/01/09 03:07:57;;;;;;;;;;;;;;;18.93;50.12;99558.06;2095818;28;19962;-63
2022/01/09 03:09:01;;;;;;;;;;;;;;;18.92;50.23;99559.09;2099983;28;20453;-63
2022/01/09 03:10:01;;;;;;;;;;;;;;;18.92;50.35;99562.69;2102938;28;19919;-63
2022/01/09 03:11:02;;;;;;;;;;;;;;;18.92;50.29;99559.09;2101968;28;19923;-63
2022/01/09 03:12:04;;;;;;;;;;;;;;;18.91;50.37;99555.50;2101760;28;19957;-64
2022/01/09 03:13:06;;;;;;;;;;;;;;;18.91;50.26;99554.63;2102829;28;19916;-63
2022/01/09 03:14:08;;;;;;;;;;;;;;;18.90;50.38;99551.06;2101769;28;19964;-64
2022/01/09 03:15:09;;;;;;;;;;;;;;;18.90;50.29;99553.78;2094814;28;19938;-63
2022/01/09 03:16:09;;;;;;;;;;;;;;;18.91;50.29;99557.38;2093618;28;19917;-63
2022/01/09 03:17:10;;;;;;;;;;;;;;;18.89;50.22;99560.28;2101040;28;20404;-63
2022/01/09 03:18:12;;;;;;;;;;;;;;;18.89;50.20;99556.66;2103067;28;20366;-63
2022/01/09 03:19:12;;;;;;;;;;;;;;;18.89;50.35;99559.41;2101900;28;19912;-63
2022/01/09 03:20:20;;;;;;;;;;;;;;;18.88;50.26;99564.00;2101807;28;19923;-63
2022/01/09 03:21:21;;;;;;;;;;;;;;;18.88;50.31;99560.44;2093675;28;19920;-63
2022/01/09 03:22:21;;;;;;;;;;;;;;;18.87;50.30;99556.00;2101921;28;19974;-63
2022/01/09 03:23:21;;;;;;;;;;;;;;;18.87;50.40;99561.47;2102294;28;19927;-63
2022/01/09 03:24:22;;;;;;;;;;;;;;;18.85;50.35;99554.25;2103303;28;20325;-63
2022/01/09 03:25:23;;;;;;;;;;;;;;;18.85;50.42;99554.25;2101455;28;19916;-64
2022/01/09 03:26:23;;;;;;;;;;;;;;;18.85;50.35;99548.81;2103653;28;19951;-64
2022/01/09 03:27:23;;;;;;;;;;;;;;;18.85;50.41;99546.06;2102114;28;19912;-63
2022/01/09 03:28:24;;;;;;;;;;;;;;;18.84;50.42;99547.09;2100332;28;20399;-63
2022/01/09 03:29:24;;;;;;;;;;;;;;;18.84;50.35;99551.72;2095005;28;20114;-63
2022/01/09 03:30:25;;;;;;;;;;;;;;;18.83;50.49;99550.00;2100197;28;19916;-63
2022/01/09 03:31:25;;;;;;;;;;;;;;;18.83;50.46;99544.53;2102124;28;19916;-63
2022/01/09 03:32:25;;;;;;;;;;;;;;;18.82;50.56;99543.69;2102236;28;20561;-63
2022/01/09 03:33:26;;;;;;;;;;;;;;;18.81;50.37;99541.97;2098939;28;19935;-63
2022/01/09 03:34:26;;;;;;;;;;;;;;;18.83;50.39;99544.53;2094977;28;19939;-63
2022/01/09 03:35:27;;;;;;;;;;;;;;;18.82;50.38;99540.09;2100445;28;19912;-64
2022/01/09 03:36:27;;;;;;;;;;;;;;;18.82;50.38;99540.09;2099989;28;19913;-64
2022/01/09 03:37:28;;;;;;;;;;;;;;;18.81;50.58;99536.50;2102739;28;19957;-64
2022/01/09 03:38:28;;;;;;;;;;;;;;;18.81;50.53;99541.97;2102066;28;19922;-64
2022/01/09 03:39:28;;;;;;;;;;;;;;;18.80;50.38;99529.31;2099242;28;19916;-63
2022/01/09 03:40:29;;;;;;;;;;;;;;;18.81;50.42;99536.50;2096936;28;19920;-63
2022/01/09 03:41:29;;;;;;;;;;;;;;;18.80;50.54;99539.41;2094719;28;20019;-64
2022/01/09 03:42:29;;;;;;;;;;;;;;;18.80;50.44;99540.25;2095450;28;19912;-63
2022/01/09 03:43:30;;;;;;;;;;;;;;;18.78;50.59;99542.28;2103163;28;19923;-63
2022/01/09 03:44:30;;;;;;;;;;;;;;;18.79;50.50;99541.28;2101623;28;19951;-63
2022/01/09 03:45:31;;;;;;;;;;;;;;;18.79;50.50;99544.00;2103194;28;19920;-64
2022/01/09 03:46:31;;;;;;;;;;;;;;;18.78;50.52;99541.44;2100155;28;19947;-63
2022/01/09 03:47:31;;;;;;;;;;;;;;;18.78;50.61;99547.72;2100728;28;20320;-64
2022/01/09 03:48:32;;;;;;;;;;;;;;;18.77;50.57;99551.50;2101592;28;19923;-63
2022/01/09 03:49:32;;;;;;;;;;;;;;;18.77;50.56;99551.50;2101758;28;19965;-63
2022/01/09 03:50:33;;;;;;;;;;;;;;;18.76;50.56;99548.91;2103142;28;19912;-64
2022/01/09 03:51:37;;;;;;;;;;;;;;;18.75;50.67;99537.13;2100851;28;19916;-63
2022/01/09 03:52:39;;;;;;;;;;;;;;;18.75;50.56;99541.72;2101317;28;20251;-63
2022/01/09 03:53:39;;;;;;;;;;;;;;;18.75;50.56;99536.25;2102707;28;19948;-64
2022/01/09 03:54:40;;;;;;;;;;;;;;;18.74;50.60;99538.16;2104060;28;19918;-64
2022/01/09 03:55:40;;;;;;;;;;;;;;;18.75;50.64;99537.13;2106160;28;19924;-64
2022/01/09 03:56:40;;;;;;;;;;;;;;;18.74;50.61;99543.59;2097029;28;19912;-63
2022/01/09 03:57:41;;;;;;;;;;;;;;;18.73;50.70;99533.69;2097144;28;19916;-64
2022/01/09 03:58:41;;;;;;;;;;;;;;;18.73;50.75;99544.59;2098492;28;19916;-64
2022/01/09 03:59:41;;;;;;;;;;;;;;;18.72;50.66;99536.59;2103540;28;19915;-64
2022/01/09 04:00:41;;;;;;;;;;;;;;;18.73;50.89;99541.03;2098929;28;19964;-63
2022/01/09 04:01:42;;;;;;;;;;;;;;;18.71;50.66;99541.16;2091575;28;19913;-63
2022/01/09 04:02:42;;;;;;;;;;;;;;;18.71;50.81;99541.16;2095072;28;19920;-63
2022/01/09 04:03:43;;;;;;;;;;;;;;;18.72;50.74;99544.78;2097534;28;19959;-63
2022/01/09 04:04:43;;;;;;;;;;;;;;;18.71;50.80;99541.16;2102370;28;20561;-63
2022/01/09 04:05:43;;;;;;;;;;;;;;;18.70;50.76;99539.47;2101170;28;19916;-63
2022/01/09 04:06:49;;;;;;;;;;;;;;;18.70;50.80;99542.19;2106193;28;19955;-63
2022/01/09 04:07:50;;;;;;;;;;;;;;;18.70;50.76;99539.47;2097187;28;20014;-64
2022/01/09 04:08:52;;;;;;;;;;;;;;;18.70;50.72;99533.16;2097251;28;19946;-64
2022/01/09 04:09:52;;;;;;;;;;;;;;;18.69;50.77;99537.78;2097807;28;20023;-64
2022/01/09 04:10:52;;;;;;;;;;;;;;;18.69;50.91;99539.63;2101016;28;19916;-63
2022/01/09 04:11:56;;;;;;;;;;;;;;;18.69;50.84;99535.03;2105998;28;19919;-63
2022/01/09 04:13:02;;;;;;;;;;;;;;;18.68;50.69;99527.84;2102809;28;20015;-64
2022/01/09 04:14:02;;;;;;;;;;;;;;;18.68;50.78;99527.84;2098718;28;20018;-63
2022/01/09 04:15:06;;;;;;;;;;;;;;;18.68;50.75;99530.59;2105974;28;19912;-64
2022/01/09 04:16:06;;;;;;;;;;;;;;;18.68;50.79;99544.22;2105489;28;19912;-63
2022/01/09 04:17:11;;;;;;;;;;;;;;;18.68;50.74;99535.19;2106474;28;19912;-64
2022/01/09 04:18:12;;;;;;;;;;;;;;;18.67;50.83;99539.81;2107255;28;19962;-64
2022/01/09 04:19:13;;;;;;;;;;;;;;;18.67;50.78;99539.81;2105747;28;20086;-64
2022/01/09 04:20:14;;;;;;;;;;;;;;;18.66;50.90;99543.53;2113842;28;20384;-63
2022/01/09 04:21:14;;;;;;;;;;;;;;;18.66;50.74;99538.06;2110223;28;20293;-64
2022/01/09 04:22:14;;;;;;;;;;;;;;;18.65;50.85;99541.81;2106086;28;19919;-63
2022/01/09 04:23:15;;;;;;;;;;;;;;;18.65;50.75;99533.63;2096781;28;19916;-64
2022/01/09 04:24:16;;;;;;;;;;;;;;;18.65;50.77;99539.09;2097171;28;19959;-64
2022/01/09 04:25:17;;;;;;;;;;;;;;;18.64;50.77;99534.63;2105865;28;19923;-64
2022/01/09 04:26:20;;;;;;;;;;;;;;;18.64;50.82;99534.63;2106291;28;19912;-64
2022/01/09 04:27:20;;;;;;;;;;;;;;;18.64;50.92;99535.53;2099488;28;19916;-63
2022/01/09 04:28:21;;;;;;;;;;;;;;;18.64;50.87;99534.63;2098816;28;19916;-63
2022/01/09 04:29:21;;;;;;;;;;;;;;;18.64;51.00;99523.72;2106154;28;20305;-63
2022/01/09 04:30:21;;;;;;;;;;;;;;;18.63;50.90;99532.94;2105788;28;19920;-64
2022/01/09 04:31:21;;;;;;;;;;;;;;;18.62;50.90;99532.09;2106096;28;20285;-63
2022/01/09 04:32:22;;;;;;;;;;;;;;;18.63;50.89;99532.94;2105421;28;20305;-63
2022/01/09 04:33:22;;;;;;;;;;;;;;;18.61;50.93;99518.59;2105537;28;20455;-63
2022/01/09 04:34:22;;;;;;;;;;;;;;;18.61;50.97;99529.50;2106027;28;20364;-64
2022/01/09 04:35:23;;;;;;;;;;;;;;;18.61;50.87;99535.81;2100271;28;19963;-64
2022/01/09 04:36:23;;;;;;;;;;;;;;;18.61;50.98;99537.69;2089907;28;19920;-63
2022/01/09 04:37:24;;;;;;;;;;;;;;;18.60;50.98;99538.72;2097037;28;19956;-63
2022/01/09 04:38:24;;;;;;;;;;;;;;;18.60;50.88;99538.72;2096597;28;19943;-64
2022/01/09 04:39:25;;;;;;;;;;;;;;;18.60;50.93;99533.28;2097158;28;20378;-64
2022/01/09 04:40:25;;;;;;;;;;;;;;;18.59;51.06;99531.53;2104103;28;19912;-63
2022/01/09 04:41:26;;;;;;;;;;;;;;;18.59;50.98;99526.06;2105387;28;19912;-63
2022/01/09 04:42:34;;;;;;;;;;;;;;;18.59;50.92;99531.53;2104536;28;19919;-63
2022/01/09 04:43:34;;;;;;;;;;;;;;;18.59;51.01;99515.16;2106009;28;19912;-63
2022/01/09 04:44:35;;;;;;;;;;;;;;;18.59;50.91;99517.88;2096727;28;19912;-63
2022/01/09 04:45:35;;;;;;;;;;;;;;;18.58;50.92;99521.66;2093974;28;19917;-64
2022/01/09 04:46:51;;;;;;;;;;;;;;;18.58;51.00;99527.09;2105445;28;19916;-64
2022/01/09 04:47:53;;;;;;;;;;;;;;;18.57;51.13;99522.66;2103086;28;19916;-64
2022/01/09 04:48:55;;;;;;;;;;;;;;;18.56;50.94;99529.97;2093391;28;20008;-63
2022/01/09 04:49:55;;;;;;;;;;;;;;;18.57;51.01;99534.44;2088658;28;19955;-63
2022/01/09 04:50:58;;;;;;;;;;;;;;;18.57;51.09;99533.56;2104598;28;19995;-64
2022/01/09 04:51:58;;;;;;;;;;;;;;;18.56;50.99;99527.25;2105644;28;20441;-63
2022/01/09 04:53:04;;;;;;;;;;;;;;;18.56;51.05;99523.69;2105665;28;20263;-63
2022/01/09 04:54:05;;;;;;;;;;;;;;;18.56;51.20;99520.94;2097459;28;19916;-64
2022/01/09 04:55:05;;;;;;;;;;;;;;;18.55;51.01;99528.28;2101166;28;19958;-64
2022/01/09 04:56:05;;;;;;;;;;;;;;;18.55;51.13;99524.72;2106211;28;19913;-63
2022/01/09 04:57:06;;;;;;;;;;;;;;;18.55;50.97;99524.72;2105751;28;20394;-63
2022/01/09 04:58:06;;;;;;;;;;;;;;;18.55;51.01;99519.25;2105572;28;20312;-63
2022/01/09 04:59:07;;;;;;;;;;;;;;;18.54;51.13;99514.78;2105967;28;19923;-63
2022/01/09 05:00:07;;;;;;;;;;;;;;;18.54;51.12;99517.50;2110716;28;19923;-63
2022/01/09 05:01:08;;;;;;;;;;;;;;;18.53;51.11;99516.66;2113718;28;19911;-63
2022/01/09 05:02:08;;;;;;;;;;;;;;;18.53;51.00;99522.13;2099185;28;20294;-63
2022/01/09 05:03:09;;;;;;;;;;;;;;;18.53;51.24;99516.66;2105408;28;19933;-63
2022/01/09 05:04:10;;;;;;;;;;;;;;;18.53;51.16;99518.53;2106145;28;19912;-63
2022/01/09 05:05:10;;;;;;;;;;;;;;;18.52;51.16;99514.09;2096421;28;19913;-63
2022/01/09 05:06:11;;;;;;;;;;;;;;;18.52;51.13;99519.53;2096759;28;19916;-63
2022/01/09 05:07:11;;;;;;;;;;;;;;;18.52;51.21;99514.09;2106207;28;19968;-63
2022/01/09 05:08:11;;;;;;;;;;;;;;;18.51;51.17;99512.38;2102748;28;19916;-63
2022/01/09 05:09:12;;;;;;;;;;;;;;;18.51;51.01;99512.38;2097890;28;19939;-63
2022/01/09 05:10:12;;;;;;;;;;;;;;;18.50;51.23;99510.69;2098279;28;19912;-63
2022/01/09 05:11:12;;;;;;;;;;;;;;;18.50;51.20;99521.59;2098296;28;19920;-64
2022/01/09 05:12:13;;;;;;;;;;;;;;;18.49;51.15;99523.44;2097634;28;19917;-63
2022/01/09 05:13:13;;;;;;;;;;;;;;;18.48;51.08;99529.94;2104120;28;19955;-65
2022/01/09 05:14:13;;;;;;;;;;;;;;;18.49;51.27;99525.34;2113362;28;19916;-64
2022/01/09 05:15:15;;;;;;;;;;;;;;;18.49;51.09;99519.88;2114222;28;19918;-65
2022/01/09 05:16:16;;;;;;;;;;;;;;;18.48;51.04;99512.72;2106159;28;19927;-64
2022/01/09 05:17:16;;;;;;;;;;;;;;;18.48;51.28;99507.25;2106242;28;19912;-65
2022/01/09 05:18:17;;;;;;;;;;;;;;;18.48;51.19;99512.72;2105198;28;19912;-64
2022/01/09 05:19:20;;;;;;;;;;;;;;;18.48;51.19;99507.25;2105316;28;20363;-64
2022/01/09 05:20:20;;;;;;;;;;;;;;;18.48;51.14;99512.72;2096685;28;19950;-64
2022/01/09 05:21:20;;;;;;;;;;;;;;;18.48;51.19;99512.72;2096370;28;19970;-64
2022/01/09 05:22:21;;;;;;;;;;;;;;;18.47;51.30;99510.97;2105826;28;19920;-65